Terminal Aerodrome Forecast
Issued by NWS Corpus Christi, TX

Home | Current Version | Previous Version | Text Only | Print | Product List | Glossary On
Versions: 1 2 3 4 5 6 7 8 9 10 11 12 13 14 15 16 17 18 19
000
FTUS44 KCRP 240800 AAA
TAFCRP
TAF AMD
KCRP 240814Z 2408/2506 16014G18KT P6SM BKN015
      TEMPO 2408/2411 SCT015
     FM241100 16011KT P6SM BKN009 OVC015
     FM241500 16015G22KT P6SM BKN015
     FM241700 14013KT P6SM SCT030 BKN040
     FM250200 14010KT P6SM OVC011=

USA.gov is the U.S. government's official web portal to all federal, state and local government web resources and services.